sensor_id;sensor_type;location;lat;lon;timestamp;P1;durP1;ratioP1;P2;durP2;ratioP2
14847;SDS011;7516;43.570;1.448;2023-04-29T00:01:58;6.00;;;2.22;;
14847;SDS011;7516;43.570;1.448;2023-04-29T00:04:27;5.13;;;2.20;;
14847;SDS011;7516;43.570;1.448;2023-04-29T00:06:54;3.67;;;2.10;;
14847;SDS011;7516;43.570;1.448;2023-04-29T00:09:21;2.55;;;1.98;;
14847;SDS011;7516;43.570;1.448;2023-04-29T00:11:49;4.20;;;2.40;;
14847;SDS011;7516;43.570;1.448;2023-04-29T00:14:16;3.50;;;2.53;;
14847;SDS011;7516;43.570;1.448;2023-04-29T00:16:43;3.65;;;2.50;;
14847;SDS011;7516;43.570;1.448;2023-04-29T00:19:10;6.63;;;2.90;;
14847;SDS011;7516;43.570;1.448;2023-04-29T00:21:39;4.10;;;2.45;;
14847;SDS011;7516;43.570;1.448;2023-04-29T00:24:06;4.20;;;2.60;;
14847;SDS011;7516;43.570;1.448;2023-04-29T00:26:34;4.55;;;2.58;;
14847;SDS011;7516;43.570;1.448;2023-04-29T00:29:01;2.90;;;2.40;;
14847;SDS011;7516;43.570;1.448;2023-04-29T00:31:28;5.57;;;2.63;;
14847;SDS011;7516;43.570;1.448;2023-04-29T00:33:56;5.78;;;2.88;;
14847;SDS011;7516;43.570;1.448;2023-04-29T00:36:23;4.43;;;2.75;;
14847;SDS011;7516;43.570;1.448;2023-04-29T00:38:53;6.97;;;3.63;;
14847;SDS011;7516;43.570;1.448;2023-04-29T00:41:20;4.27;;;2.90;;
14847;SDS011;7516;43.570;1.448;2023-04-29T00:43:47;5.88;;;3.08;;
14847;SDS011;7516;43.570;1.448;2023-04-29T00:46:16;4.70;;;2.63;;
14847;SDS011;7516;43.570;1.448;2023-04-29T00:48:43;4.97;;;2.80;;
14847;SDS011;7516;43.570;1.448;2023-04-29T00:51:11;5.88;;;2.83;;
14847;SDS011;7516;43.570;1.448;2023-04-29T00:53:38;5.05;;;2.85;;
14847;SDS011;7516;43.570;1.448;2023-04-29T00:56:07;5.57;;;2.90;;
14847;SDS011;7516;43.570;1.448;2023-04-29T00:58:34;4.25;;;3.08;;
14847;SDS011;7516;43.570;1.448;2023-04-29T01:01:03;4.37;;;3.13;;
14847;SDS011;7516;43.570;1.448;2023-04-29T01:03:31;5.57;;;2.70;;
14847;SDS011;7516;43.570;1.448;2023-04-29T01:06:02;5.65;;;3.10;;
14847;SDS011;7516;43.570;1.448;2023-04-29T01:08:34;4.88;;;2.75;;
14847;SDS011;7516;43.570;1.448;2023-04-29T01:11:05;4.00;;;3.03;;
14847;SDS011;7516;43.570;1.448;2023-04-29T01:13:36;5.82;;;3.47;;
14847;SDS011;7516;43.570;1.448;2023-04-29T01:16:10;3.58;;;2.90;;
14847;SDS011;7516;43.570;1.448;2023-04-29T01:18:38;3.75;;;3.00;;
14847;SDS011;7516;43.570;1.448;2023-04-29T01:21:08;6.68;;;3.20;;
14847;SDS011;7516;43.570;1.448;2023-04-29T01:23:36;3.97;;;2.93;;
14847;SDS011;7516;43.570;1.448;2023-04-29T01:26:03;4.37;;;2.80;;
14847;SDS011;7516;43.570;1.448;2023-04-29T01:28:36;4.65;;;3.35;;
14847;SDS011;7516;43.570;1.448;2023-04-29T01:31:07;3.28;;;2.75;;
14847;SDS011;7516;43.570;1.448;2023-04-29T01:33:39;4.28;;;2.90;;
14847;SDS011;7516;43.570;1.448;2023-04-29T01:36:11;3.23;;;2.83;;
14847;SDS011;7516;43.570;1.448;2023-04-29T01:38:43;4.30;;;3.08;;
14847;SDS011;7516;43.570;1.448;2023-04-29T01:41:13;5.23;;;3.30;;
14847;SDS011;7516;43.570;1.448;2023-04-29T01:43:41;5.47;;;3.15;;
14847;SDS011;7516;43.570;1.448;2023-04-29T01:46:09;7.82;;;2.95;;
14847;SDS011;7516;43.570;1.448;2023-04-29T01:48:36;4.88;;;3.00;;
14847;SDS011;7516;43.570;1.448;2023-04-29T01:51:04;5.47;;;2.90;;
14847;SDS011;7516;43.570;1.448;2023-04-29T01:53:31;4.57;;;2.83;;
14847;SDS011;7516;43.570;1.448;2023-04-29T01:56:00;4.65;;;3.03;;
14847;SDS011;7516;43.570;1.448;2023-04-29T01:58:27;4.80;;;2.97;;
14847;SDS011;7516;43.570;1.448;2023-04-29T02:00:54;7.35;;;3.20;;
14847;SDS011;7516;43.570;1.448;2023-04-29T02:03:22;5.43;;;2.95;;
14847;SDS011;7516;43.570;1.448;2023-04-29T02:05:49;5.30;;;3.15;;
14847;SDS011;7516;43.570;1.448;2023-04-29T02:08:17;4.60;;;3.27;;
14847;SDS011;7516;43.570;1.448;2023-04-29T02:10:50;5.85;;;2.88;;
14847;SDS011;7516;43.570;1.448;2023-04-29T02:13:19;7.00;;;3.10;;
14847;SDS011;7516;43.570;1.448;2023-04-29T02:15:46;7.70;;;3.53;;
14847;SDS011;7516;43.570;1.448;2023-04-29T02:18:13;8.57;;;3.40;;
14847;SDS011;7516;43.570;1.448;2023-04-29T02:20:41;5.43;;;3.20;;
14847;SDS011;7516;43.570;1.448;2023-04-29T02:23:08;6.03;;;3.60;;
14847;SDS011;7516;43.570;1.448;2023-04-29T02:25:36;7.80;;;3.60;;
14847;SDS011;7516;43.570;1.448;2023-04-29T02:28:03;4.57;;;3.10;;
14847;SDS011;7516;43.570;1.448;2023-04-29T02:30:31;6.27;;;4.17;;
14847;SDS011;7516;43.570;1.448;2023-04-29T02:32:59;5.43;;;3.13;;
14847;SDS011;7516;43.570;1.448;2023-04-29T02:35:26;5.00;;;3.30;;
14847;SDS011;7516;43.570;1.448;2023-04-29T02:37:54;7.18;;;3.63;;
14847;SDS011;7516;43.570;1.448;2023-04-29T02:40:21;5.95;;;3.10;;
14847;SDS011;7516;43.570;1.448;2023-04-29T02:42:49;5.03;;;3.20;;
14847;SDS011;7516;43.570;1.448;2023-04-29T02:45:17;5.65;;;3.47;;
14847;SDS011;7516;43.570;1.448;2023-04-29T02:47:45;5.53;;;3.25;;
14847;SDS011;7516;43.570;1.448;2023-04-29T02:50:13;7.60;;;4.00;;
14847;SDS011;7516;43.570;1.448;2023-04-29T02:52:40;6.03;;;3.80;;
14847;SDS011;7516;43.570;1.448;2023-04-29T02:55:07;6.78;;;3.50;;
14847;SDS011;7516;43.570;1.448;2023-04-29T02:57:35;8.45;;;3.50;;
14847;SDS011;7516;43.570;1.448;2023-04-29T03:00:02;7.15;;;3.60;;
14847;SDS011;7516;43.570;1.448;2023-04-29T03:02:29;4.15;;;2.97;;
14847;SDS011;7516;43.570;1.448;2023-04-29T03:04:58;6.05;;;3.28;;
14847;SDS011;7516;43.570;1.448;2023-04-29T03:07:26;7.78;;;3.80;;
14847;SDS011;7516;43.570;1.448;2023-04-29T03:09:54;9.82;;;3.85;;
14847;SDS011;7516;43.570;1.448;2023-04-29T03:12:21;6.63;;;3.72;;
14847;SDS011;7516;43.570;1.448;2023-04-29T03:14:48;5.20;;;3.50;;
14847;SDS011;7516;43.570;1.448;2023-04-29T03:17:17;6.88;;;3.60;;
14847;SDS011;7516;43.570;1.448;2023-04-29T03:19:44;9.53;;;3.40;;
14847;SDS011;7516;43.570;1.448;2023-04-29T03:22:12;9.93;;;3.67;;
14847;SDS011;7516;43.570;1.448;2023-04-29T03:24:40;6.05;;;3.92;;
14847;SDS011;7516;43.570;1.448;2023-04-29T03:27:07;5.97;;;3.80;;
14847;SDS011;7516;43.570;1.448;2023-04-29T03:29:35;9.93;;;4.13;;
14847;SDS011;7516;43.570;1.448;2023-04-29T03:32:02;10.82;;;4.03;;
14847;SDS011;7516;43.570;1.448;2023-04-29T03:34:29;9.13;;;4.00;;
14847;SDS011;7516;43.570;1.448;2023-04-29T03:36:57;8.10;;;3.67;;
14847;SDS011;7516;43.570;1.448;2023-04-29T03:39:26;8.98;;;4.18;;
14847;SDS011;7516;43.570;1.448;2023-04-29T03:41:56;9.23;;;4.50;;
14847;SDS011;7516;43.570;1.448;2023-04-29T03:44:23;7.80;;;4.30;;
14847;SDS011;7516;43.570;1.448;2023-04-29T03:46:51;8.02;;;3.80;;
14847;SDS011;7516;43.570;1.448;2023-04-29T03:49:18;11.18;;;4.13;;
14847;SDS011;7516;43.570;1.448;2023-04-29T03:51:45;8.07;;;4.40;;
14847;SDS011;7516;43.570;1.448;2023-04-29T03:54:12;12.70;;;4.67;;
14847;SDS011;7516;43.570;1.448;2023-04-29T03:56:41;12.65;;;4.53;;
14847;SDS011;7516;43.570;1.448;2023-04-29T03:59:08;8.60;;;4.18;;
14847;SDS011;7516;43.570;1.448;2023-04-29T04:01:36;9.77;;;4.35;;
14847;SDS011;7516;43.570;1.448;2023-04-29T04:04:03;10.73;;;4.47;;
14847;SDS011;7516;43.570;1.448;2023-04-29T04:06:30;7.03;;;4.07;;
14847;SDS011;7516;43.570;1.448;2023-04-29T04:08:58;9.67;;;4.20;;
14847;SDS011;7516;43.570;1.448;2023-04-29T04:11:25;7.93;;;4.10;;
14847;SDS011;7516;43.570;1.448;2023-04-29T04:13:54;9.93;;;4.40;;
14847;SDS011;7516;43.570;1.448;2023-04-29T04:16:21;6.33;;;4.20;;
14847;SDS011;7516;43.570;1.448;2023-04-29T04:18:48;7.97;;;4.28;;
14847;SDS011;7516;43.570;1.448;2023-04-29T04:21:15;8.85;;;4.30;;
14847;SDS011;7516;43.570;1.448;2023-04-29T04:23:42;11.30;;;4.30;;
14847;SDS011;7516;43.570;1.448;2023-04-29T04:26:10;9.07;;;4.60;;
14847;SDS011;7516;43.570;1.448;2023-04-29T04:28:37;10.47;;;4.27;;
14847;SDS011;7516;43.570;1.448;2023-04-29T04:31:05;9.90;;;4.43;;
14847;SDS011;7516;43.570;1.448;2023-04-29T04:33:33;9.03;;;4.17;;
14847;SDS011;7516;43.570;1.448;2023-04-29T04:36:00;9.73;;;4.47;;
14847;SDS011;7516;43.570;1.448;2023-04-29T04:38:27;7.77;;;5.00;;
14847;SDS011;7516;43.570;1.448;2023-04-29T04:40:57;8.47;;;5.13;;
14847;SDS011;7516;43.570;1.448;2023-04-29T04:43:24;10.80;;;4.60;;
14847;SDS011;7516;43.570;1.448;2023-04-29T04:45:51;8.30;;;5.00;;
14847;SDS011;7516;43.570;1.448;2023-04-29T04:48:20;9.05;;;4.68;;
14847;SDS011;7516;43.570;1.448;2023-04-29T04:50:47;9.73;;;4.82;;
14847;SDS011;7516;43.570;1.448;2023-04-29T04:53:15;9.32;;;4.80;;
14847;SDS011;7516;43.570;1.448;2023-04-29T04:55:42;11.47;;;4.27;;
14847;SDS011;7516;43.570;1.448;2023-04-29T04:58:09;9.67;;;4.90;;
14847;SDS011;7516;43.570;1.448;2023-04-29T05:00:36;7.90;;;4.67;;
14847;SDS011;7516;43.570;1.448;2023-04-29T05:03:04;7.60;;;4.63;;
14847;SDS011;7516;43.570;1.448;2023-04-29T05:05:33;9.03;;;5.20;;
14847;SDS011;7516;43.570;1.448;2023-04-29T05:08:00;9.33;;;5.90;;
14847;SDS011;7516;43.570;1.448;2023-04-29T05:10:28;8.30;;;5.03;;
14847;SDS011;7516;43.570;1.448;2023-04-29T05:12:55;8.30;;;5.73;;
14847;SDS011;7516;43.570;1.448;2023-04-29T05:15:22;7.30;;;4.83;;
14847;SDS011;7516;43.570;1.448;2023-04-29T05:17:51;8.83;;;4.57;;
14847;SDS011;7516;43.570;1.448;2023-04-29T05:20:18;6.37;;;4.70;;
14847;SDS011;7516;43.570;1.448;2023-04-29T05:22:47;7.90;;;4.97;;
14847;SDS011;7516;43.570;1.448;2023-04-29T05:25:15;7.93;;;5.80;;
14847;SDS011;7516;43.570;1.448;2023-04-29T05:27:42;7.53;;;5.30;;
14847;SDS011;7516;43.570;1.448;2023-04-29T05:30:10;7.67;;;4.87;;
14847;SDS011;7516;43.570;1.448;2023-04-29T05:32:37;6.40;;;5.17;;
14847;SDS011;7516;43.570;1.448;2023-04-29T05:35:05;6.33;;;4.70;;
14847;SDS011;7516;43.570;1.448;2023-04-29T05:37:32;7.43;;;5.13;;
14847;SDS011;7516;43.570;1.448;2023-04-29T05:40:01;6.13;;;4.90;;
14847;SDS011;7516;43.570;1.448;2023-04-29T05:42:28;7.77;;;4.90;;
14847;SDS011;7516;43.570;1.448;2023-04-29T05:44:56;7.20;;;5.03;;
14847;SDS011;7516;43.570;1.448;2023-04-29T05:47:23;6.83;;;5.10;;
14847;SDS011;7516;43.570;1.448;2023-04-29T05:49:50;7.23;;;5.20;;
14847;SDS011;7516;43.570;1.448;2023-04-29T05:52:17;6.43;;;5.33;;
14847;SDS011;7516;43.570;1.448;2023-04-29T05:54:45;7.33;;;5.00;;
14847;SDS011;7516;43.570;1.448;2023-04-29T05:57:13;7.23;;;5.23;;
14847;SDS011;7516;43.570;1.448;2023-04-29T05:59:41;7.10;;;4.90;;
14847;SDS011;7516;43.570;1.448;2023-04-29T06:02:08;6.13;;;4.97;;
14847;SDS011;7516;43.570;1.448;2023-04-29T06:04:36;9.53;;;4.73;;
14847;SDS011;7516;43.570;1.448;2023-04-29T06:07:05;7.67;;;5.17;;
14847;SDS011;7516;43.570;1.448;2023-04-29T06:09:33;6.73;;;4.83;;
14847;SDS011;7516;43.570;1.448;2023-04-29T06:12:00;5.50;;;4.47;;
14847;SDS011;7516;43.570;1.448;2023-04-29T06:14:29;5.17;;;4.67;;
14847;SDS011;7516;43.570;1.448;2023-04-29T06:16:57;5.77;;;4.63;;
14847;SDS011;7516;43.570;1.448;2023-04-29T06:19:24;5.53;;;5.03;;
14847;SDS011;7516;43.570;1.448;2023-04-29T06:21:51;8.50;;;5.10;;
14847;SDS011;7516;43.570;1.448;2023-04-29T06:24:18;6.13;;;5.13;;
14847;SDS011;7516;43.570;1.448;2023-04-29T06:26:46;8.27;;;5.23;;
14847;SDS011;7516;43.570;1.448;2023-04-29T06:29:14;6.43;;;5.70;;
14847;SDS011;7516;43.570;1.448;2023-04-29T06:31:42;7.47;;;5.40;;
14847;SDS011;7516;43.570;1.448;2023-04-29T06:34:09;6.53;;;5.40;;
14847;SDS011;7516;43.570;1.448;2023-04-29T06:36:37;7.03;;;5.23;;
14847;SDS011;7516;43.570;1.448;2023-04-29T06:39:05;6.47;;;5.47;;
14847;SDS011;7516;43.570;1.448;2023-04-29T06:41:32;7.97;;;5.73;;
14847;SDS011;7516;43.570;1.448;2023-04-29T06:44:00;7.90;;;5.73;;
14847;SDS011;7516;43.570;1.448;2023-04-29T06:46:28;6.93;;;5.87;;
14847;SDS011;7516;43.570;1.448;2023-04-29T06:48:56;9.63;;;6.07;;
14847;SDS011;7516;43.570;1.448;2023-04-29T06:51:23;8.90;;;5.40;;
14847;SDS011;7516;43.570;1.448;2023-04-29T06:53:52;7.13;;;5.37;;
14847;SDS011;7516;43.570;1.448;2023-04-29T06:56:19;7.73;;;5.30;;
14847;SDS011;7516;43.570;1.448;2023-04-29T06:58:47;7.80;;;5.93;;
14847;SDS011;7516;43.570;1.448;2023-04-29T07:01:15;7.00;;;5.70;;
14847;SDS011;7516;43.570;1.448;2023-04-29T07:03:42;8.50;;;6.10;;
14847;SDS011;7516;43.570;1.448;2023-04-29T07:06:11;10.52;;;6.15;;
14847;SDS011;7516;43.570;1.448;2023-04-29T07:08:38;7.67;;;5.70;;
14847;SDS011;7516;43.570;1.448;2023-04-29T07:11:05;8.30;;;6.30;;
14847;SDS011;7516;43.570;1.448;2023-04-29T07:13:33;9.50;;;7.70;;
14847;SDS011;7516;43.570;1.448;2023-04-29T07:16:00;10.07;;;7.70;;
14847;SDS011;7516;43.570;1.448;2023-04-29T07:18:27;11.82;;;7.30;;
14847;SDS011;7516;43.570;1.448;2023-04-29T07:20:59;9.07;;;6.53;;
14847;SDS011;7516;43.570;1.448;2023-04-29T07:23:27;10.17;;;6.53;;
14847;SDS011;7516;43.570;1.448;2023-04-29T07:25:55;10.30;;;7.00;;
14847;SDS011;7516;43.570;1.448;2023-04-29T07:28:22;11.47;;;7.30;;
14847;SDS011;7516;43.570;1.448;2023-04-29T07:30:50;10.73;;;8.53;;
14847;SDS011;7516;43.570;1.448;2023-04-29T07:33:17;10.30;;;7.77;;
14847;SDS011;7516;43.570;1.448;2023-04-29T07:35:44;11.33;;;8.30;;
14847;SDS011;7516;43.570;1.448;2023-04-29T07:38:11;10.17;;;7.07;;
14847;SDS011;7516;43.570;1.448;2023-04-29T07:40:40;9.40;;;6.83;;
14847;SDS011;7516;43.570;1.448;2023-04-29T07:43:11;12.57;;;8.10;;
14847;SDS011;7516;43.570;1.448;2023-04-29T07:45:41;14.23;;;9.03;;
14847;SDS011;7516;43.570;1.448;2023-04-29T07:48:09;10.17;;;7.70;;
14847;SDS011;7516;43.570;1.448;2023-04-29T07:50:36;11.17;;;8.40;;
14847;SDS011;7516;43.570;1.448;2023-04-29T07:53:03;12.90;;;8.77;;
14847;SDS011;7516;43.570;1.448;2023-04-29T07:55:30;11.37;;;8.83;;
14847;SDS011;7516;43.570;1.448;2023-04-29T07:57:59;14.27;;;8.97;;
14847;SDS011;7516;43.570;1.448;2023-04-29T08:00:26;13.83;;;9.23;;
14847;SDS011;7516;43.570;1.448;2023-04-29T08:02:54;15.27;;;9.83;;
14847;SDS011;7516;43.570;1.448;2023-04-29T08:05:21;15.47;;;10.33;;
14847;SDS011;7516;43.570;1.448;2023-04-29T08:07:49;15.80;;;10.73;;
14847;SDS011;7516;43.570;1.448;2023-04-29T08:10:16;15.53;;;9.50;;
14847;SDS011;7516;43.570;1.448;2023-04-29T08:12:46;16.30;;;9.87;;
14847;SDS011;7516;43.570;1.448;2023-04-29T08:15:15;12.20;;;8.80;;
14847;SDS011;7516;43.570;1.448;2023-04-29T08:17:42;16.90;;;10.47;;
14847;SDS011;7516;43.570;1.448;2023-04-29T08:20:10;13.57;;;9.13;;
14847;SDS011;7516;43.570;1.448;2023-04-29T08:22:37;12.90;;;8.33;;
14847;SDS011;7516;43.570;1.448;2023-04-29T08:25:05;13.30;;;9.20;;
14847;SDS011;7516;43.570;1.448;2023-04-29T08:27:32;11.97;;;8.40;;
14847;SDS011;7516;43.570;1.448;2023-04-29T08:29:59;12.57;;;8.27;;
14847;SDS011;7516;43.570;1.448;2023-04-29T08:32:28;10.13;;;7.73;;
14847;SDS011;7516;43.570;1.448;2023-04-29T08:34:56;10.83;;;7.53;;
14847;SDS011;7516;43.570;1.448;2023-04-29T08:37:23;11.17;;;7.33;;
14847;SDS011;7516;43.570;1.448;2023-04-29T08:39:50;10.57;;;7.50;;
14847;SDS011;7516;43.570;1.448;2023-04-29T08:42:18;11.77;;;8.27;;
14847;SDS011;7516;43.570;1.448;2023-04-29T08:44:47;15.43;;;9.67;;
14847;SDS011;7516;43.570;1.448;2023-04-29T08:47:15;14.13;;;9.37;;
14847;SDS011;7516;43.570;1.448;2023-04-29T08:49:44;12.17;;;8.70;;
14847;SDS011;7516;43.570;1.448;2023-04-29T08:52:11;13.47;;;8.23;;
14847;SDS011;7516;43.570;1.448;2023-04-29T08:54:38;13.80;;;9.20;;
14847;SDS011;7516;43.570;1.448;2023-04-29T08:57:06;13.20;;;9.40;;
14847;SDS011;7516;43.570;1.448;2023-04-29T08:59:33;10.97;;;8.17;;
14847;SDS011;7516;43.570;1.448;2023-04-29T09:02:02;13.10;;;9.17;;
14847;SDS011;7516;43.570;1.448;2023-04-29T09:04:32;12.33;;;9.93;;
14847;SDS011;7516;43.570;1.448;2023-04-29T09:07:04;16.60;;;12.43;;
14847;SDS011;7516;43.570;1.448;2023-04-29T09:09:31;16.83;;;12.70;;
14847;SDS011;7516;43.570;1.448;2023-04-29T09:11:59;13.93;;;9.80;;
14847;SDS011;7516;43.570;1.448;2023-04-29T09:14:26;9.90;;;7.93;;
14847;SDS011;7516;43.570;1.448;2023-04-29T09:16:57;10.27;;;7.90;;
14847;SDS011;7516;43.570;1.448;2023-04-29T09:19:28;11.90;;;8.70;;
14847;SDS011;7516;43.570;1.448;2023-04-29T09:21:56;8.07;;;6.53;;
14847;SDS011;7516;43.570;1.448;2023-04-29T09:24:25;8.70;;;6.47;;
14847;SDS011;7516;43.570;1.448;2023-04-29T09:26:53;9.37;;;7.70;;
14847;SDS011;7516;43.570;1.448;2023-04-29T09:29:20;8.77;;;6.57;;
14847;SDS011;7516;43.570;1.448;2023-04-29T09:31:50;11.03;;;7.53;;
14847;SDS011;7516;43.570;1.448;2023-04-29T09:34:29;9.13;;;6.93;;
14847;SDS011;7516;43.570;1.448;2023-04-29T09:36:57;8.93;;;6.90;;
14847;SDS011;7516;43.570;1.448;2023-04-29T09:39:25;11.67;;;8.10;;
14847;SDS011;7516;43.570;1.448;2023-04-29T09:41:56;11.20;;;8.10;;
14847;SDS011;7516;43.570;1.448;2023-04-29T09:44:25;10.40;;;7.20;;
14847;SDS011;7516;43.570;1.448;2023-04-29T09:46:55;13.03;;;7.17;;
14847;SDS011;7516;43.570;1.448;2023-04-29T09:49:25;10.20;;;7.60;;
14847;SDS011;7516;43.570;1.448;2023-04-29T09:51:53;10.63;;;7.30;;
14847;SDS011;7516;43.570;1.448;2023-04-29T09:54:21;7.97;;;6.60;;
14847;SDS011;7516;43.570;1.448;2023-04-29T09:56:51;9.17;;;6.73;;
14847;SDS011;7516;43.570;1.448;2023-04-29T09:59:18;9.80;;;6.93;;
14847;SDS011;7516;43.570;1.448;2023-04-29T10:01:47;7.40;;;5.87;;
14847;SDS011;7516;43.570;1.448;2023-04-29T10:04:15;7.10;;;5.70;;
14847;SDS011;7516;43.570;1.448;2023-04-29T10:06:43;8.47;;;5.80;;
14847;SDS011;7516;43.570;1.448;2023-04-29T10:09:12;7.83;;;6.00;;
14847;SDS011;7516;43.570;1.448;2023-04-29T10:11:47;9.23;;;7.10;;
14847;SDS011;7516;43.570;1.448;2023-04-29T10:14:16;9.57;;;7.40;;
14847;SDS011;7516;43.570;1.448;2023-04-29T10:16:44;10.33;;;6.53;;
14847;SDS011;7516;43.570;1.448;2023-04-29T10:19:13;8.47;;;6.63;;
14847;SDS011;7516;43.570;1.448;2023-04-29T10:21:41;7.67;;;6.00;;
14847;SDS011;7516;43.570;1.448;2023-04-29T10:24:09;7.57;;;5.73;;
14847;SDS011;7516;43.570;1.448;2023-04-29T10:26:37;9.20;;;6.60;;
14847;SDS011;7516;43.570;1.448;2023-04-29T10:29:05;8.90;;;6.57;;
14847;SDS011;7516;43.570;1.448;2023-04-29T10:31:35;7.90;;;6.00;;
14847;SDS011;7516;43.570;1.448;2023-04-29T10:34:03;6.93;;;5.87;;
14847;SDS011;7516;43.570;1.448;2023-04-29T10:36:31;7.53;;;6.20;;
14847;SDS011;7516;43.570;1.448;2023-04-29T10:39:00;6.60;;;5.80;;
14847;SDS011;7516;43.570;1.448;2023-04-29T10:41:30;8.40;;;6.53;;
14847;SDS011;7516;43.570;1.448;2023-04-29T10:43:59;7.63;;;6.07;;
14847;SDS011;7516;43.570;1.448;2023-04-29T10:46:28;7.60;;;5.57;;
14847;SDS011;7516;43.570;1.448;2023-04-29T10:48:59;7.37;;;5.90;;
14847;SDS011;7516;43.570;1.448;2023-04-29T10:51:28;7.67;;;6.20;;
14847;SDS011;7516;43.570;1.448;2023-04-29T10:53:57;8.60;;;6.60;;
14847;SDS011;7516;43.570;1.448;2023-04-29T10:56:37;8.90;;;5.97;;
14847;SDS011;7516;43.570;1.448;2023-04-29T10:59:05;8.50;;;6.27;;
14847;SDS011;7516;43.570;1.448;2023-04-29T11:01:39;8.13;;;6.20;;
14847;SDS011;7516;43.570;1.448;2023-04-29T11:04:08;7.33;;;5.83;;
14847;SDS011;7516;43.570;1.448;2023-04-29T11:06:40;7.40;;;5.67;;
14847;SDS011;7516;43.570;1.448;2023-04-29T11:09:08;6.17;;;5.50;;
14847;SDS011;7516;43.570;1.448;2023-04-29T11:11:40;6.77;;;5.77;;
14847;SDS011;7516;43.570;1.448;2023-04-29T11:14:07;8.37;;;5.70;;
14847;SDS011;7516;43.570;1.448;2023-04-29T11:16:36;7.88;;;5.53;;
14847;SDS011;7516;43.570;1.448;2023-04-29T11:19:04;6.68;;;5.63;;
14847;SDS011;7516;43.570;1.448;2023-04-29T11:21:33;7.23;;;6.00;;
14847;SDS011;7516;43.570;1.448;2023-04-29T11:24:01;8.90;;;5.73;;
14847;SDS011;7516;43.570;1.448;2023-04-29T11:26:33;8.37;;;6.27;;
14847;SDS011;7516;43.570;1.448;2023-04-29T11:29:00;8.23;;;6.15;;
14847;SDS011;7516;43.570;1.448;2023-04-29T11:31:29;7.23;;;6.17;;
14847;SDS011;7516;43.570;1.448;2023-04-29T11:34:03;9.93;;;6.78;;
14847;SDS011;7516;43.570;1.448;2023-04-29T11:36:31;8.60;;;6.07;;
14847;SDS011;7516;43.570;1.448;2023-04-29T11:39:00;7.00;;;6.03;;
14847;SDS011;7516;43.570;1.448;2023-04-29T11:41:29;9.60;;;5.80;;
14847;SDS011;7516;43.570;1.448;2023-04-29T11:43:57;8.23;;;6.00;;
14847;SDS011;7516;43.570;1.448;2023-04-29T11:46:25;7.57;;;5.97;;
14847;SDS011;7516;43.570;1.448;2023-04-29T11:48:53;8.35;;;5.93;;
14847;SDS011;7516;43.570;1.448;2023-04-29T11:51:20;6.80;;;5.57;;
14847;SDS011;7516;43.570;1.448;2023-04-29T11:53:47;6.27;;;5.30;;
14847;SDS011;7516;43.570;1.448;2023-04-29T11:56:16;5.97;;;5.25;;
14847;SDS011;7516;43.570;1.448;2023-04-29T11:58:47;6.73;;;5.23;;
14847;SDS011;7516;43.570;1.448;2023-04-29T12:01:14;8.30;;;6.07;;
14847;SDS011;7516;43.570;1.448;2023-04-29T12:03:41;8.00;;;6.27;;
14847;SDS011;7516;43.570;1.448;2023-04-29T12:06:10;7.80;;;6.10;;
14847;SDS011;7516;43.570;1.448;2023-04-29T12:08:40;8.85;;;6.40;;
14847;SDS011;7516;43.570;1.448;2023-04-29T12:11:07;7.17;;;5.33;;
14847;SDS011;7516;43.570;1.448;2023-04-29T12:13:36;8.15;;;5.82;;
14847;SDS011;7516;43.570;1.448;2023-04-29T12:16:06;8.33;;;6.00;;
14847;SDS011;7516;43.570;1.448;2023-04-29T12:18:36;8.03;;;6.07;;
14847;SDS011;7516;43.570;1.448;2023-04-29T12:21:06;10.13;;;7.13;;
14847;SDS011;7516;43.570;1.448;2023-04-29T12:23:33;7.70;;;5.75;;
14847;SDS011;7516;43.570;1.448;2023-04-29T12:26:02;10.03;;;6.43;;
14847;SDS011;7516;43.570;1.448;2023-04-29T12:28:30;8.00;;;5.63;;
14847;SDS011;7516;43.570;1.448;2023-04-29T12:30:58;9.25;;;5.40;;
14847;SDS011;7516;43.570;1.448;2023-04-29T12:33:27;7.15;;;5.57;;
14847;SDS011;7516;43.570;1.448;2023-04-29T12:35:54;7.30;;;5.78;;
14847;SDS011;7516;43.570;1.448;2023-04-29T12:38:23;7.27;;;5.67;;
14847;SDS011;7516;43.570;1.448;2023-04-29T12:40:51;8.17;;;6.20;;
14847;SDS011;7516;43.570;1.448;2023-04-29T12:43:18;7.25;;;5.82;;
14847;SDS011;7516;43.570;1.448;2023-04-29T12:45:46;7.93;;;5.87;;
14847;SDS011;7516;43.570;1.448;2023-04-29T12:48:15;8.97;;;6.27;;
14847;SDS011;7516;43.570;1.448;2023-04-29T12:50:43;8.60;;;6.00;;
14847;SDS011;7516;43.570;1.448;2023-04-29T12:53:15;7.88;;;6.22;;
14847;SDS011;7516;43.570;1.448;2023-04-29T12:55:43;7.07;;;5.70;;
14847;SDS011;7516;43.570;1.448;2023-04-29T12:58:10;8.00;;;6.00;;
14847;SDS011;7516;43.570;1.448;2023-04-29T13:00:37;6.30;;;5.47;;
14847;SDS011;7516;43.570;1.448;2023-04-29T13:03:05;6.65;;;5.50;;
14847;SDS011;7516;43.570;1.448;2023-04-29T13:05:36;6.88;;;4.78;;
14847;SDS011;7516;43.570;1.448;2023-04-29T13:08:04;6.43;;;5.70;;
14847;SDS011;7516;43.570;1.448;2023-04-29T13:10:32;7.03;;;4.87;;
14847;SDS011;7516;43.570;1.448;2023-04-29T13:13:00;6.53;;;4.90;;
14847;SDS011;7516;43.570;1.448;2023-04-29T13:15:28;5.53;;;4.73;;
14847;SDS011;7516;43.570;1.448;2023-04-29T13:17:57;7.70;;;5.97;;
14847;SDS011;7516;43.570;1.448;2023-04-29T13:20:24;7.00;;;6.13;;
14847;SDS011;7516;43.570;1.448;2023-04-29T13:22:53;9.38;;;5.78;;
14847;SDS011;7516;43.570;1.448;2023-04-29T13:25:20;7.85;;;6.30;;
14847;SDS011;7516;43.570;1.448;2023-04-29T13:27:47;7.23;;;5.70;;
14847;SDS011;7516;43.570;1.448;2023-04-29T13:30:15;7.37;;;5.17;;
14847;SDS011;7516;43.570;1.448;2023-04-29T13:32:42;7.50;;;5.73;;
14847;SDS011;7516;43.570;1.448;2023-04-29T13:35:09;7.45;;;5.68;;
14847;SDS011;7516;43.570;1.448;2023-04-29T13:37:37;7.53;;;5.65;;
14847;SDS011;7516;43.570;1.448;2023-04-29T13:40:07;6.75;;;5.90;;
14847;SDS011;7516;43.570;1.448;2023-04-29T13:42:35;6.80;;;5.13;;
14847;SDS011;7516;43.570;1.448;2023-04-29T13:45:03;7.23;;;5.40;;
14847;SDS011;7516;43.570;1.448;2023-04-29T13:47:30;6.28;;;5.32;;
14847;SDS011;7516;43.570;1.448;2023-04-29T13:49:57;6.45;;;5.47;;
14847;SDS011;7516;43.570;1.448;2023-04-29T13:52:24;7.28;;;5.80;;
14847;SDS011;7516;43.570;1.448;2023-04-29T13:54:54;7.40;;;6.03;;
14847;SDS011;7516;43.570;1.448;2023-04-29T13:57:23;7.10;;;5.65;;
14847;SDS011;7516;43.570;1.448;2023-04-29T13:59:51;5.85;;;4.88;;
14847;SDS011;7516;43.570;1.448;2023-04-29T14:02:20;5.85;;;4.68;;
14847;SDS011;7516;43.570;1.448;2023-04-29T14:04:47;5.45;;;4.90;;
14847;SDS011;7516;43.570;1.448;2023-04-29T14:07:15;6.60;;;4.50;;
14847;SDS011;7516;43.570;1.448;2023-04-29T14:09:42;5.17;;;4.60;;
14847;SDS011;7516;43.570;1.448;2023-04-29T14:12:10;5.57;;;4.77;;
14847;SDS011;7516;43.570;1.448;2023-04-29T14:14:39;5.03;;;4.63;;
14847;SDS011;7516;43.570;1.448;2023-04-29T14:17:06;5.63;;;4.20;;
14847;SDS011;7516;43.570;1.448;2023-04-29T14:19:34;5.57;;;4.47;;
14847;SDS011;7516;43.570;1.448;2023-04-29T14:22:01;5.13;;;4.63;;
14847;SDS011;7516;43.570;1.448;2023-04-29T14:24:29;5.90;;;4.47;;
14847;SDS011;7516;43.570;1.448;2023-04-29T14:26:56;4.93;;;4.35;;
14847;SDS011;7516;43.570;1.448;2023-04-29T14:29:23;4.47;;;4.07;;
14847;SDS011;7516;43.570;1.448;2023-04-29T14:31:52;4.35;;;3.90;;
14847;SDS011;7516;43.570;1.448;2023-04-29T14:34:20;5.30;;;3.78;;
14847;SDS011;7516;43.570;1.448;2023-04-29T14:36:47;5.18;;;3.72;;
14847;SDS011;7516;43.570;1.448;2023-04-29T14:39:14;3.47;;;3.15;;
14847;SDS011;7516;43.570;1.448;2023-04-29T14:41:42;4.43;;;3.70;;
14847;SDS011;7516;43.570;1.448;2023-04-29T14:44:09;4.82;;;3.90;;
14847;SDS011;7516;43.570;1.448;2023-04-29T14:46:37;4.70;;;3.85;;
14847;SDS011;7516;43.570;1.448;2023-04-29T14:49:06;5.22;;;3.90;;
14847;SDS011;7516;43.570;1.448;2023-04-29T14:51:33;3.75;;;3.45;;
14847;SDS011;7516;43.570;1.448;2023-04-29T14:54:01;4.15;;;3.60;;
14847;SDS011;7516;43.570;1.448;2023-04-29T14:56:28;4.93;;;3.75;;
14847;SDS011;7516;43.570;1.448;2023-04-29T14:58:55;4.53;;;3.53;;
14847;SDS011;7516;43.570;1.448;2023-04-29T15:01:23;4.22;;;3.55;;
14847;SDS011;7516;43.570;1.448;2023-04-29T15:03:51;4.57;;;3.47;;